createdAt,value
2019-03-23T00:02:04.412Z,42.48
2019-03-23T00:04:33.562Z,37.05
2019-03-23T00:07:03.680Z,44.38
2019-03-23T00:09:33.282Z,38.05
2019-03-23T00:12:06.180Z,40.65
2019-03-23T00:14:35.288Z,48.92
2019-03-23T00:17:06.410Z,54.03
2019-03-23T00:19:35.516Z,47.23
2019-03-23T00:22:04.737Z,48.98
2019-03-23T00:24:33.981Z,42.00
2019-03-23T00:27:03.114Z,41.85
2019-03-23T00:29:32.910Z,44.73
2019-03-23T00:32:02.030Z,51.20
2019-03-23T00:34:31.253Z,49.83
2019-03-23T00:37:00.429Z,37.53
2019-03-23T00:39:29.531Z,48.38
2019-03-23T00:42:02.775Z,45.83
2019-03-23T00:44:31.896Z,46.55
2019-03-23T00:47:01.020Z,53.28
2019-03-23T00:49:30.125Z,52.67
2019-03-23T00:51:59.240Z,46.53
2019-03-23T00:54:28.488Z,51.35
2019-03-23T00:56:57.646Z,53.40
2019-03-23T00:59:26.779Z,47.85
2019-03-23T01:01:56.608Z,46.63
2019-03-23T01:04:25.726Z,44.35
2019-03-23T01:06:55.523Z,43.25
2019-03-23T01:09:24.642Z,48.78
2019-03-23T01:11:54.152Z,53.13
2019-03-23T01:14:23.566Z,56.40
2019-03-23T01:16:53.145Z,54.83
2019-03-23T01:19:24.381Z,58.28
2019-03-23T01:21:53.544Z,53.25
2019-03-23T01:24:26.497Z,56.85
2019-03-23T01:26:55.645Z,53.75
2019-03-23T01:29:25.157Z,57.93
2019-03-23T01:31:54.315Z,50.35
2019-03-23T01:34:23.453Z,40.08
2019-03-23T01:37:02.301Z,43.10
2019-03-23T01:39:24.086Z,46.68
2019-03-23T01:41:56.573Z,44.53
2019-03-23T01:44:26.002Z,44.77
2019-03-23T01:46:55.891Z,44.38
2019-03-23T01:49:25.785Z,44.40
2019-03-23T01:51:57.813Z,47.08
2019-03-23T01:54:27.192Z,48.80
2019-03-23T01:56:56.377Z,39.67
2019-03-23T01:59:27.952Z,48.45
2019-03-23T02:01:57.756Z,56.58
2019-03-23T02:04:27.214Z,62.05
2019-03-23T02:06:56.364Z,68.25
2019-03-23T02:09:25.488Z,68.90
2019-03-23T02:11:54.645Z,58.70
2019-03-23T02:14:24.442Z,58.75
2019-03-23T02:16:53.966Z,54.77
2019-03-23T02:19:26.467Z,49.98
2019-03-23T02:21:55.942Z,46.28
2019-03-23T02:24:25.588Z,48.83
2019-03-23T02:26:57.718Z,56.40
2019-03-23T02:29:26.815Z,58.78
2019-03-23T02:31:55.926Z,63.28
2019-03-23T02:34:28.168Z,54.33
2019-03-23T02:36:57.282Z,65.42
2019-03-23T02:39:28.525Z,62.20
2019-03-23T02:41:58.676Z,60.20
2019-03-23T02:44:28.149Z,62.33
2019-03-23T02:46:57.306Z,60.83
2019-03-23T02:49:26.767Z,62.43
2019-03-23T02:51:56.180Z,58.92
2019-03-23T02:54:25.393Z,66.30
2019-03-23T02:56:54.475Z,54.58
2019-03-23T02:59:23.590Z,63.52
2019-03-23T03:01:53.723Z,50.55
2019-03-23T03:04:23.408Z,49.85
2019-03-23T03:06:54.248Z,58.45
2019-03-23T03:09:23.322Z,62.38
2019-03-23T03:11:52.434Z,65.47
2019-03-23T03:14:23.711Z,59.40
2019-03-23T03:16:56.482Z,58.65
2019-03-23T03:19:30.887Z,60.67
2019-03-23T03:21:59.996Z,53.90
2019-03-23T03:24:29.158Z,50.30
2019-03-23T03:26:59.266Z,49.50
2019-03-23T03:29:28.704Z,54.48
2019-03-23T03:31:58.597Z,49.08
2019-03-23T03:34:31.417Z,64.47
2019-03-23T03:37:03.336Z,62.30
2019-03-23T03:39:32.473Z,72.60
2019-03-23T03:42:04.913Z,65.12
2019-03-23T03:44:34.459Z,76.15
2019-03-23T03:47:03.591Z,70.85
2019-03-23T03:49:32.671Z,61.30
2019-03-23T03:52:01.812Z,64.07
2019-03-23T03:54:31.648Z,65.75
2019-03-23T03:57:01.236Z,57.98
2019-03-23T03:59:30.396Z,47.53
2019-03-23T04:01:59.919Z,56.18
2019-03-23T04:04:30.332Z,53.05
2019-03-23T04:06:59.861Z,57.08
2019-03-23T04:09:32.120Z,74.70
2019-03-23T04:12:01.529Z,69.00
2019-03-23T04:14:30.636Z,77.53
2019-03-23T04:16:59.750Z,76.00
2019-03-23T04:19:28.861Z,68.97
2019-03-23T04:21:58.365Z,78.37
2019-03-23T04:24:27.493Z,77.00
2019-03-23T04:26:56.623Z,61.15
2019-03-23T04:29:26.109Z,63.80
2019-03-23T04:31:55.225Z,67.75
2019-03-23T04:34:24.352Z,57.62
2019-03-23T04:36:53.487Z,60.43
2019-03-23T04:39:23.354Z,58.08
2019-03-23T04:41:58.174Z,59.77
2019-03-23T04:44:28.298Z,64.87
2019-03-23T04:46:57.461Z,56.23
2019-03-23T04:49:26.581Z,47.23
2019-03-23T04:51:56.866Z,52.35
2019-03-23T04:54:26.030Z,47.73
2019-03-23T04:56:55.913Z,50.80
2019-03-23T04:59:25.803Z,51.33
2019-03-23T05:01:58.235Z,49.85
2019-03-23T05:04:27.597Z,44.20
2019-03-23T05:06:57.130Z,52.75
2019-03-23T05:09:26.319Z,47.60
2019-03-23T05:11:58.482Z,45.70
2019-03-23T05:14:29.435Z,40.65
2019-03-23T05:16:58.823Z,56.55
2019-03-23T05:19:27.979Z,51.00
2019-03-23T05:21:57.460Z,60.25
2019-03-23T05:24:27.205Z,45.73
2019-03-23T05:26:56.306Z,44.00
2019-03-23T05:29:25.452Z,51.90
2019-03-23T05:31:54.942Z,51.05
2019-03-23T05:34:24.497Z,47.05
2019-03-23T05:36:53.602Z,54.15
2019-03-23T05:39:22.742Z,44.48
2019-03-23T05:41:53.256Z,51.83
2019-03-23T05:44:23.400Z,52.35
2019-03-23T05:46:54.328Z,55.78
2019-03-23T05:49:23.642Z,52.48
2019-03-23T05:51:56.458Z,52.85
2019-03-23T05:54:26.082Z,47.48
2019-03-23T05:56:58.311Z,43.10
2019-03-23T05:59:27.749Z,47.80
2019-03-23T06:01:56.857Z,44.55
2019-03-23T06:04:25.987Z,43.95
2019-03-23T06:06:55.541Z,61.63
2019-03-23T06:09:28.219Z,54.65
2019-03-23T06:11:57.298Z,52.33
2019-03-23T06:14:26.756Z,53.87
2019-03-23T06:16:55.860Z,49.88
2019-03-23T06:19:25.402Z,58.13
2019-03-23T06:21:55.283Z,46.60
2019-03-23T06:24:25.151Z,40.05
2019-03-23T06:26:54.270Z,43.95
2019-03-23T06:29:28.662Z,42.62
2019-03-23T06:31:57.784Z,44.13
2019-03-23T06:34:26.968Z,42.93
2019-03-23T06:36:56.071Z,39.63
2019-03-23T06:39:25.225Z,41.95
2019-03-23T06:41:54.340Z,41.33
2019-03-23T06:44:23.528Z,43.52
2019-03-23T06:46:52.652Z,43.23
2019-03-23T06:49:22.244Z,35.28
2019-03-23T06:51:52.047Z,39.25
2019-03-23T06:54:21.263Z,39.78
2019-03-23T06:56:50.727Z,45.30
2019-03-23T06:59:19.899Z,40.88
2019-03-23T07:01:49.331Z,37.30
2019-03-23T07:04:21.638Z,34.70
2019-03-23T07:06:50.770Z,35.98
2019-03-23T07:09:20.621Z,38.00
2019-03-23T07:11:50.428Z,41.85
2019-03-23T07:14:19.856Z,42.45
2019-03-23T07:16:48.967Z,45.58
2019-03-23T07:19:18.751Z,51.05
2019-03-23T07:21:47.839Z,53.33
2019-03-23T07:24:19.403Z,51.73
2019-03-23T07:26:48.495Z,64.75
2019-03-23T07:29:17.605Z,70.60
2019-03-23T07:31:46.706Z,77.55
2019-03-23T07:34:18.317Z,79.53
2019-03-23T07:36:47.412Z,86.35
2019-03-23T07:39:26.653Z,100.53
2019-03-23T07:41:51.179Z,122.10
2019-03-23T07:44:20.328Z,128.80
2019-03-23T07:46:49.599Z,119.95
2019-03-23T07:49:19.031Z,135.65
2019-03-23T07:51:48.820Z,144.57
2019-03-23T07:54:17.993Z,151.57
2019-03-23T07:56:47.100Z,152.17
2019-03-23T07:59:16.237Z,146.80
2019-03-23T08:01:48.102Z,152.87
2019-03-23T08:04:17.229Z,158.52
2019-03-23T08:06:46.334Z,137.85
2019-03-23T08:09:20.499Z,131.67
2019-03-23T08:11:49.821Z,139.85
2019-03-23T08:14:18.912Z,124.95
2019-03-23T08:16:48.033Z,122.40
2019-03-23T08:19:17.765Z,124.60
2019-03-23T08:21:48.121Z,124.27
2019-03-23T08:24:17.235Z,122.25
2019-03-23T08:26:46.686Z,125.67
2019-03-23T08:29:15.894Z,122.85
2019-03-23T08:31:44.999Z,121.53
2019-03-23T08:34:14.518Z,111.52
2019-03-23T08:36:46.835Z,117.22
2019-03-23T08:39:15.954Z,108.17
2019-03-23T08:41:45.038Z,111.83
2019-03-23T08:44:14.157Z,109.40
2019-03-23T08:46:47.012Z,113.35
2019-03-23T08:49:16.114Z,108.20
2019-03-23T08:51:45.249Z,106.78
2019-03-23T08:54:14.554Z,115.85
2019-03-23T08:56:43.651Z,100.38
2019-03-23T08:59:12.769Z,96.65
2019-03-23T09:01:41.885Z,108.80
2019-03-23T09:04:16.540Z,96.57
2019-03-23T09:06:45.641Z,104.27
2019-03-23T09:09:14.765Z,105.78
2019-03-23T09:11:43.892Z,110.08
2019-03-23T09:14:13.330Z,117.72
2019-03-23T09:16:42.732Z,118.28
2019-03-23T09:19:11.825Z,116.10
2019-03-23T09:21:41.284Z,110.83
2019-03-23T09:24:15.149Z,113.95
2019-03-23T09:26:44.272Z,117.90
2019-03-23T09:29:13.668Z,113.88
2019-03-23T09:31:52.267Z,115.52
2019-03-23T09:34:22.365Z,111.08
2019-03-23T09:36:52.174Z,118.97
2019-03-23T09:39:21.291Z,115.77
2019-03-23T09:41:53.833Z,118.02
2019-03-23T09:44:24.079Z,120.42
2019-03-23T09:46:53.219Z,115.03
2019-03-23T09:49:27.931Z,123.78
2019-03-23T09:51:57.636Z,120.42
2019-03-23T09:54:26.752Z,121.85
2019-03-23T09:56:56.854Z,113.35
2019-03-23T09:59:26.338Z,118.85
2019-03-23T10:01:55.455Z,117.93
2019-03-23T10:04:24.955Z,120.42
2019-03-23T10:06:54.983Z,107.72
2019-03-23T10:09:33.661Z,117.93
2019-03-23T10:12:02.810Z,122.82
2019-03-23T10:14:34.861Z,120.70
2019-03-23T10:17:03.968Z,115.37
2019-03-23T10:19:33.075Z,118.72
2019-03-23T10:22:03.114Z,122.40
2019-03-23T10:24:32.219Z,122.37
2019-03-23T10:27:02.616Z,127.10
2019-03-23T10:29:31.709Z,127.55
2019-03-23T10:32:00.820Z,131.97
2019-03-23T10:34:32.285Z,130.82
2019-03-23T10:37:01.989Z,134.85
2019-03-23T10:39:31.098Z,117.10
2019-03-23T10:42:00.485Z,117.53
2019-03-23T10:44:29.615Z,124.33
2019-03-23T10:46:58.738Z,124.15
2019-03-23T10:49:30.537Z,139.28
2019-03-23T10:52:00.031Z,125.15
2019-03-23T10:54:29.526Z,124.22
2019-03-23T10:56:58.946Z,127.45
2019-03-23T10:59:28.148Z,129.95
2019-03-23T11:01:57.817Z,141.20
2019-03-23T11:04:27.538Z,133.97
2019-03-23T11:07:00.051Z,135.78
2019-03-23T11:09:29.517Z,134.43
2019-03-23T11:11:58.643Z,136.43
2019-03-23T11:14:30.779Z,128.65
2019-03-23T11:17:00.928Z,143.20
2019-03-23T11:19:33.173Z,131.25
2019-03-23T11:22:02.706Z,142.37
2019-03-23T11:24:35.118Z,137.60
2019-03-23T11:27:08.144Z,135.70
2019-03-23T11:29:37.256Z,138.43
2019-03-23T11:32:09.671Z,143.28
2019-03-23T11:34:46.742Z,124.53
2019-03-23T11:37:15.927Z,118.80
2019-03-23T11:39:45.213Z,128.02
2019-03-23T11:42:16.835Z,126.55
2019-03-23T11:44:46.376Z,119.93
2019-03-23T11:47:15.597Z,108.27
2019-03-23T11:49:46.186Z,122.67
2019-03-23T11:52:16.726Z,117.45
2019-03-23T11:54:48.897Z,119.15
2019-03-23T11:57:18.025Z,110.10
2019-03-23T11:59:47.108Z,114.32
2019-03-23T12:02:19.521Z,123.10
2019-03-23T12:04:48.623Z,112.00
2019-03-23T12:07:17.774Z,105.07
2019-03-23T12:09:49.597Z,116.15
2019-03-23T12:12:18.702Z,115.37
2019-03-23T12:14:51.498Z,115.45
2019-03-23T12:17:21.011Z,103.87
2019-03-23T12:19:50.888Z,109.80
2019-03-23T12:22:20.017Z,104.45
2019-03-23T12:24:49.835Z,100.45
2019-03-23T12:27:18.933Z,104.65
2019-03-23T12:29:51.404Z,95.17
2019-03-23T12:32:20.951Z,99.87
2019-03-23T12:34:50.982Z,100.95
2019-03-23T12:37:22.957Z,100.82
2019-03-23T12:39:52.087Z,106.27
2019-03-23T12:42:21.198Z,97.08
2019-03-23T12:44:50.278Z,100.18
2019-03-23T12:47:19.460Z,101.92
2019-03-23T12:49:48.564Z,97.60
2019-03-23T12:52:18.269Z,96.30
2019-03-23T12:54:47.774Z,95.25
2019-03-23T12:57:17.248Z,100.58
2019-03-23T12:59:46.391Z,88.85
2019-03-23T13:02:17.132Z,87.20
2019-03-23T13:04:46.946Z,85.22
2019-03-23T13:07:16.052Z,83.60
2019-03-23T13:09:45.154Z,86.12
2019-03-23T13:12:14.675Z,83.50
2019-03-23T13:14:44.155Z,77.95
2019-03-23T13:17:13.267Z,81.85
2019-03-23T13:19:42.355Z,79.10
2019-03-23T13:22:12.175Z,74.55
2019-03-23T13:24:41.948Z,83.92
2019-03-23T13:27:15.114Z,74.75
2019-03-23T13:29:44.763Z,80.55
2019-03-23T13:32:13.886Z,74.80
2019-03-23T13:34:43.046Z,77.12
2019-03-23T13:37:12.657Z,71.00
2019-03-23T13:39:42.329Z,77.90
2019-03-23T13:42:11.425Z,69.35
2019-03-23T13:44:44.584Z,74.10
2019-03-23T13:47:13.691Z,76.30
2019-03-23T13:49:43.423Z,76.33
2019-03-23T13:52:12.528Z,68.30
2019-03-23T13:54:43.275Z,69.40
2019-03-23T13:57:12.364Z,69.00
2019-03-23T13:59:42.143Z,65.62
2019-03-23T14:02:11.943Z,70.55
2019-03-23T14:04:41.140Z,72.10
2019-03-23T14:07:10.929Z,72.95
2019-03-23T14:09:40.131Z,68.70
2019-03-23T14:12:09.322Z,69.62
2019-03-23T14:14:38.455Z,72.55
2019-03-23T14:17:07.572Z,70.72
2019-03-23T14:19:40.491Z,66.20
2019-03-23T14:22:09.629Z,66.15
2019-03-23T14:24:38.831Z,67.42
2019-03-23T14:27:07.946Z,66.67
2019-03-23T14:29:37.064Z,71.05
2019-03-23T14:32:08.168Z,69.58
2019-03-23T14:34:37.302Z,66.75
2019-03-23T14:37:06.386Z,69.30
2019-03-23T14:39:35.623Z,70.20
2019-03-23T14:42:07.951Z,69.80
2019-03-23T14:44:37.083Z,73.05
2019-03-23T14:47:06.170Z,71.17
2019-03-23T14:49:35.316Z,64.62
2019-03-23T14:52:04.416Z,74.87
2019-03-23T14:54:33.525Z,64.53
2019-03-23T14:57:02.689Z,69.05
2019-03-23T14:59:31.795Z,70.72
2019-03-23T15:02:02.198Z,70.42
2019-03-23T15:04:31.316Z,73.35
2019-03-23T15:07:00.450Z,71.07
2019-03-23T15:09:29.585Z,77.60
2019-03-23T15:12:00.285Z,72.10
2019-03-23T15:14:29.424Z,73.25
2019-03-23T15:16:58.520Z,72.92
2019-03-23T15:19:27.653Z,74.70
2019-03-23T15:21:56.758Z,73.60
2019-03-23T15:24:25.903Z,72.22
2019-03-23T15:26:55.056Z,71.67
2019-03-23T15:29:24.205Z,70.55
2019-03-23T15:31:53.617Z,70.37
2019-03-23T15:34:22.751Z,74.85
2019-03-23T15:36:51.839Z,80.20
2019-03-23T15:39:20.956Z,70.95
2019-03-23T15:41:53.307Z,82.92
2019-03-23T15:44:22.494Z,77.95
2019-03-23T15:46:51.882Z,75.08
2019-03-23T15:49:23.882Z,79.15
2019-03-23T15:51:52.996Z,78.67
2019-03-23T15:54:22.256Z,78.47
2019-03-23T15:56:51.366Z,81.47
2019-03-23T15:59:27.005Z,74.47
2019-03-23T16:01:56.093Z,76.40
2019-03-23T16:04:25.622Z,78.47
2019-03-23T16:06:56.740Z,74.17
2019-03-23T16:09:25.578Z,85.53
2019-03-23T16:11:54.915Z,75.72
2019-03-23T16:14:24.018Z,80.95
2019-03-23T16:16:53.181Z,82.92
2019-03-23T16:19:25.381Z,84.30
2019-03-23T16:21:56.090Z,77.27
2019-03-23T16:24:25.242Z,87.15
2019-03-23T16:26:54.642Z,85.28
2019-03-23T16:29:23.754Z,82.72
2019-03-23T16:31:52.891Z,76.47
2019-03-23T16:34:21.990Z,84.72
2019-03-23T16:36:51.145Z,80.62
2019-03-23T16:39:20.197Z,82.47
2019-03-23T16:41:49.389Z,79.00
2019-03-23T16:44:19.363Z,90.03
2019-03-23T16:46:48.503Z,88.05
2019-03-23T16:49:17.644Z,81.95
2019-03-23T16:51:46.792Z,87.60
2019-03-23T16:54:15.899Z,86.35
2019-03-23T16:56:45.045Z,87.65
2019-03-23T16:59:14.183Z,86.53
2019-03-23T17:01:43.363Z,88.25
2019-03-23T17:04:13.448Z,93.10
2019-03-23T17:06:46.686Z,91.95
2019-03-23T17:09:13.669Z,86.10
2019-03-23T17:11:42.790Z,96.45
2019-03-23T17:14:11.897Z,91.02
2019-03-23T17:16:45.964Z,90.75
2019-03-23T17:19:15.046Z,93.95
2019-03-23T17:21:44.164Z,98.65
2019-03-23T17:24:14.072Z,99.37
2019-03-23T17:26:45.156Z,93.50
2019-03-23T17:29:14.018Z,96.80
2019-03-23T17:31:43.143Z,99.03
2019-03-23T17:34:15.386Z,84.65
2019-03-23T17:36:45.631Z,87.92
2019-03-23T17:39:14.792Z,84.65
2019-03-23T17:41:43.936Z,89.07
2019-03-23T17:44:13.016Z,85.25
2019-03-23T17:46:42.128Z,80.85
2019-03-23T17:49:11.721Z,94.13
2019-03-23T17:51:40.853Z,92.20
2019-03-23T17:54:09.945Z,85.72
2019-03-23T17:56:39.053Z,87.62
2019-03-23T17:59:08.503Z,88.47
2019-03-23T18:01:37.955Z,92.60
2019-03-23T18:04:07.053Z,92.10
2019-03-23T18:06:36.161Z,99.83
2019-03-23T18:09:05.699Z,91.53
2019-03-23T18:11:35.901Z,93.20
2019-03-23T18:14:05.370Z,86.95
2019-03-23T18:16:34.477Z,85.87
2019-03-23T18:19:03.582Z,88.05
2019-03-23T18:21:32.701Z,84.42
2019-03-23T18:24:01.798Z,97.27
2019-03-23T18:26:30.910Z,82.05
2019-03-23T18:29:00.004Z,91.35
2019-03-23T18:31:29.145Z,90.60
2019-03-23T18:33:58.394Z,90.25
2019-03-23T18:36:27.516Z,87.62
2019-03-23T18:38:56.612Z,96.30
2019-03-23T18:41:25.992Z,90.40
2019-03-23T18:43:55.236Z,91.53
2019-03-23T18:46:24.755Z,95.62
2019-03-23T18:48:53.857Z,99.05
2019-03-23T18:51:23.289Z,99.80
2019-03-23T18:53:52.401Z,98.37
2019-03-23T18:56:21.530Z,97.08
2019-03-23T18:58:50.640Z,93.58
2019-03-23T19:01:19.774Z,98.45
2019-03-23T19:03:48.953Z,95.77
2019-03-23T19:06:18.104Z,89.13
2019-03-23T19:08:51.256Z,93.17
2019-03-23T19:11:20.360Z,85.03
2019-03-23T19:13:49.466Z,86.95
2019-03-23T19:16:18.624Z,82.57
2019-03-23T19:18:49.257Z,81.90
2019-03-23T19:21:18.494Z,71.85
2019-03-23T19:23:51.434Z,69.60
2019-03-23T19:26:20.542Z,73.67
2019-03-23T19:28:49.668Z,68.47
2019-03-23T19:31:18.764Z,66.53
2019-03-23T19:33:48.692Z,66.12
2019-03-23T19:36:17.797Z,65.45
2019-03-23T19:38:46.897Z,69.32
2019-03-23T19:41:16.417Z,63.60
2019-03-23T19:43:49.671Z,65.35
2019-03-23T19:46:16.366Z,63.28
2019-03-23T19:48:45.491Z,67.20
2019-03-23T19:51:14.571Z,74.87
2019-03-23T19:53:44.063Z,63.50
2019-03-23T19:56:13.155Z,66.75
2019-03-23T19:58:42.323Z,81.42
2019-03-23T20:01:11.386Z,70.97
2019-03-23T20:03:40.488Z,79.67
2019-03-23T20:06:09.577Z,71.50
2019-03-23T20:08:38.711Z,60.75
2019-03-23T20:11:07.842Z,59.48
2019-03-23T20:13:36.965Z,50.12
2019-03-23T20:16:06.059Z,42.35
2019-03-23T20:18:35.180Z,45.75
2019-03-23T20:21:04.288Z,40.30
2019-03-23T20:23:33.405Z,49.58
2019-03-23T20:26:02.494Z,41.45
2019-03-23T20:28:35.045Z,43.15
2019-03-23T20:31:04.149Z,42.73
2019-03-23T20:33:33.265Z,46.25
2019-03-23T20:36:02.341Z,50.05
2019-03-23T20:38:31.440Z,39.15
2019-03-23T20:41:00.606Z,53.08
2019-03-23T20:43:30.178Z,55.55
2019-03-23T20:46:02.078Z,56.98
2019-03-23T20:48:31.197Z,62.10
2019-03-23T20:51:02.886Z,63.63
2019-03-23T20:53:32.006Z,62.13
2019-03-23T20:56:03.141Z,56.18
2019-03-23T20:58:32.295Z,62.43
2019-03-23T21:01:01.404Z,55.00
2019-03-23T21:03:30.525Z,46.53
2019-03-23T21:05:59.589Z,47.67
2019-03-23T21:08:29.025Z,43.15
2019-03-23T21:10:58.088Z,40.73
2019-03-23T21:13:27.532Z,39.08
2019-03-23T21:15:56.630Z,43.10
2019-03-23T21:18:25.804Z,40.33
2019-03-23T21:20:54.901Z,40.83
2019-03-23T21:23:24.664Z,36.03
2019-03-23T21:25:53.792Z,35.43
2019-03-23T21:28:23.266Z,36.60
2019-03-23T21:30:53.041Z,32.78
2019-03-23T21:33:22.178Z,34.92
2019-03-23T21:35:51.259Z,38.63
2019-03-23T21:38:20.369Z,35.98
2019-03-23T21:40:49.636Z,27.98
2019-03-23T21:43:18.697Z,31.90
2019-03-23T21:45:47.859Z,30.37
2019-03-23T21:48:16.975Z,31.95
2019-03-23T21:50:47.679Z,28.98
2019-03-23T21:53:16.964Z,23.98
2019-03-23T21:55:46.053Z,31.90
2019-03-23T21:58:15.181Z,31.35
2019-03-23T22:00:44.658Z,26.30
2019-03-23T22:03:16.131Z,23.47
2019-03-23T22:05:45.703Z,20.17
2019-03-23T22:08:15.532Z,28.95
2019-03-23T22:10:44.617Z,23.57
2019-03-23T22:13:17.216Z,27.52
2019-03-23T22:15:46.339Z,24.50
2019-03-23T22:18:15.641Z,20.60
2019-03-23T22:20:44.741Z,18.32
2019-03-23T22:23:13.855Z,27.42
2019-03-23T22:25:42.966Z,21.90
2019-03-23T22:28:12.105Z,23.00
2019-03-23T22:30:41.195Z,21.95
2019-03-23T22:33:10.953Z,26.73
2019-03-23T22:35:40.838Z,25.27
2019-03-23T22:38:10.215Z,24.37
2019-03-23T22:40:39.311Z,25.88
2019-03-23T22:43:08.424Z,20.27
2019-03-23T22:45:37.545Z,24.23
2019-03-23T22:48:06.634Z,22.80
2019-03-23T22:50:35.762Z,26.23
2019-03-23T22:53:05.304Z,20.92
2019-03-23T22:55:34.465Z,28.25
2019-03-23T22:58:03.575Z,26.15
2019-03-23T23:00:44.132Z,22.17
2019-03-23T23:03:13.683Z,23.25
2019-03-23T23:05:43.061Z,20.70
2019-03-23T23:08:12.873Z,23.83
2019-03-23T23:10:42.437Z,22.17
2019-03-23T23:13:11.534Z,18.55
2019-03-23T23:15:40.657Z,20.77
2019-03-23T23:18:09.743Z,26.80
2019-03-23T23:20:38.853Z,25.95
2019-03-23T23:23:08.378Z,23.95
2019-03-23T23:25:37.513Z,18.02
2019-03-23T23:28:06.619Z,23.60
2019-03-23T23:30:35.735Z,20.23
2019-03-23T23:33:04.865Z,27.80
2019-03-23T23:35:33.975Z,27.70
2019-03-23T23:38:03.377Z,23.50
2019-03-23T23:40:32.467Z,20.40
2019-03-23T23:43:01.564Z,21.97
2019-03-23T23:45:31.074Z,24.43
2019-03-23T23:48:00.232Z,29.23
2019-03-23T23:50:29.302Z,25.70
2019-03-23T23:53:00.254Z,23.60
2019-03-23T23:55:29.647Z,22.73
2019-03-23T23:57:58.851Z,28.92
